Time;durP1;ratioP1;P1;durP2;ratioP2;P2;SDS_P1;SDS_P2;PMS_P1;PMS_P2;Temp;Humidity;BMP_temperature;BMP_pressure;BME280_temperature;BME280_humidity;BME280_pressure;Samples;Min_cycle;Max_cycle;Signal;HPM_P1;HPM_P2
2023/04/04 00:02:35;;;;;;;;;;;;;;;18.24;57.69;102380.84;2256449;78;51495;-75
2023/04/04 00:05:36;;;;;;;;;;;;;;;18.32;57.47;102376.97;2209388;79;53155;-75
2023/04/04 00:08:38;;;;;;;;;;;;;;;18.34;57.32;102376.34;2221368;79;51429;-76
2023/04/04 00:11:41;;;;;;;;;;;;;;;18.37;57.24;102372.51;2221784;79;51456;-75
2023/04/04 00:14:42;;;;;;;;;;;;;;;18.34;57.29;102377.69;2241896;79;50369;-75
2023/04/04 00:17:44;;;;;;;;;;;;;;;18.28;57.45;102373.70;2246172;78;52563;-75
2023/04/04 00:20:46;;;;;;;;;;;;;;;18.26;57.51;102370.81;2221291;79;51587;-75
2023/04/04 00:23:47;;;;;;;;;;;;;;;18.19;57.60;102371.03;2221419;79;51467;-75
2023/04/04 00:26:49;;;;;;;;;;;;;;;18.16;57.61;102371.28;2241954;78;49873;-75
2023/04/04 00:29:51;;;;;;;;;;;;;;;18.13;57.64;102370.23;2245822;78;51417;-75
2023/04/04 00:32:52;;;;;;;;;;;;;;;18.10;57.80;102369.17;2230440;78;51637;-75
2023/04/04 00:35:54;;;;;;;;;;;;;;;18.13;57.88;102369.73;2263717;77;50272;-75
2023/04/04 00:38:56;;;;;;;;;;;;;;;18.18;57.86;102374.19;2279212;78;50650;-75
2023/04/04 00:41:57;;;;;;;;;;;;;;;18.18;57.79;102374.68;2233856;78;51096;-75
2023/04/04 00:44:59;;;;;;;;;;;;;;;18.19;57.79;102375.05;2278973;78;50438;-76
2023/04/04 00:48:01;;;;;;;;;;;;;;;18.17;57.82;102379.70;2278388;78;49918;-74
2023/04/04 00:51:03;;;;;;;;;;;;;;;18.16;57.87;102369.95;2241545;79;51490;-73
2023/04/04 00:54:04;;;;;;;;;;;;;;;18.16;58.10;102375.30;2221392;79;52510;-74
2023/04/04 00:57:06;;;;;;;;;;;;;;;18.10;58.01;102371.85;2241924;79;50732;-75
2023/04/04 01:00:09;;;;;;;;;;;;;;;18.06;58.04;102366.77;2242077;79;50369;-74
2023/04/04 01:03:11;;;;;;;;;;;;;;;18.04;58.10;102367.90;2245318;78;51620;-74
2023/04/04 01:06:13;;;;;;;;;;;;;;;18.01;58.23;102363.66;2254927;78;51199;-75
2023/04/04 01:09:15;;;;;;;;;;;;;;;18.04;58.31;102364.72;2279245;78;50266;-75
2023/04/04 01:12:17;;;;;;;;;;;;;;;18.13;58.19;102364.88;2279327;77;51549;-75
2023/04/04 01:15:19;;;;;;;;;;;;;;;18.25;58.09;102363.77;2279173;78;50863;-75
2023/04/04 01:18:21;;;;;;;;;;;;;;;18.29;58.12;102366.54;2258271;78;51196;-74
2023/04/04 01:21:22;;;;;;;;;;;;;;;18.32;57.91;102360.89;2279479;78;51359;-74
2023/04/04 01:24:24;;;;;;;;;;;;;;;18.32;58.03;102361.39;2279177;78;49845;-74
2023/04/04 01:27:26;;;;;;;;;;;;;;;18.28;58.07;102358.97;2279330;77;50312;-73
2023/04/04 01:30:28;;;;;;;;;;;;;;;18.30;57.92;102356.16;2258244;78;51187;-73
2023/04/04 01:33:32;;;;;;;;;;;;;;;18.22;58.09;102350.66;2264076;78;50320;-75
2023/04/04 01:36:35;;;;;;;;;;;;;;;18.16;58.17;102344.03;2246991;78;50212;-75
2023/04/04 01:39:42;;;;;;;;;;;;;;;18.09;58.26;102352.26;2232940;79;51527;-73
2023/04/04 01:42:45;;;;;;;;;;;;;;;18.06;58.31;102346.69;2213498;79;51760;-73
2023/04/04 01:45:46;;;;;;;;;;;;;;;18.01;58.55;102342.23;2232917;78;51531;-73
2023/04/04 01:48:48;;;;;;;;;;;;;;;18.05;58.53;102342.79;2213496;79;51460;-73
2023/04/04 01:51:50;;;;;;;;;;;;;;;18.14;58.34;102338.45;2213634;79;51453;-74
2023/04/04 01:54:52;;;;;;;;;;;;;;;18.23;58.20;102343.80;2213358;79;52528;-75
2023/04/04 01:57:53;;;;;;;;;;;;;;;18.31;57.99;102343.11;2234091;79;51509;-73
2023/04/04 02:00:55;;;;;;;;;;;;;;;18.35;57.83;102336.48;2213789;79;51621;-74
2023/04/04 02:03:57;;;;;;;;;;;;;;;18.37;57.75;102331.84;2221453;78;51455;-74
2023/04/04 02:06:58;;;;;;;;;;;;;;;18.38;57.68;102326.83;2252666;78;51582;-74
2023/04/04 02:10:00;;;;;;;;;;;;;;;18.35;57.80;102323.59;2279586;77;50536;-74
2023/04/04 02:13:02;;;;;;;;;;;;;;;18.30;57.84;102314.63;2279571;78;51528;-74
2023/04/04 02:16:03;;;;;;;;;;;;;;;18.23;57.98;102324.20;2258114;78;51557;-74
2023/04/04 02:19:05;;;;;;;;;;;;;;;18.16;58.08;102319.91;2233507;78;51772;-74
2023/04/04 02:22:07;;;;;;;;;;;;;;;18.13;58.15;102316.65;2258796;78;50062;-74
2023/04/04 02:25:09;;;;;;;;;;;;;;;18.05;58.35;102318.69;2279535;78;50364;-75
2023/04/04 02:28:10;;;;;;;;;;;;;;;18.04;58.41;102319.19;2258252;78;50303;-73
2023/04/04 02:31:12;;;;;;;;;;;;;;;18.10;58.38;102319.61;2233872;78;51161;-74
2023/04/04 02:34:13;;;;;;;;;;;;;;;18.17;58.32;102314.06;2256864;78;50396;-73
2023/04/04 02:37:16;;;;;;;;;;;;;;;18.29;58.18;102312.95;2256240;78;50644;-73
2023/04/04 02:40:18;;;;;;;;;;;;;;;18.35;57.95;102310.19;2258904;78;50110;-74
2023/04/04 02:43:19;;;;;;;;;;;;;;;18.38;57.87;102308.06;2283804;77;51656;-75
2023/04/04 02:46:21;;;;;;;;;;;;;;;18.35;57.99;102303.49;2258277;78;51566;-72
2023/04/04 02:49:23;;;;;;;;;;;;;;;18.35;57.90;102304.33;2258215;78;50789;-75
2023/04/04 02:52:24;;;;;;;;;;;;;;;18.32;57.99;102304.63;2258594;78;51506;-74
2023/04/04 02:55:26;;;;;;;;;;;;;;;18.26;58.10;102290.42;2234235;78;52532;-74
2023/04/04 02:58:28;;;;;;;;;;;;;;;18.18;58.20;102291.63;2259154;78;51691;-74
2023/04/04 03:01:29;;;;;;;;;;;;;;;18.11;58.33;102288.68;2285151;77;52393;-75
2023/04/04 03:04:31;;;;;;;;;;;;;;;18.09;58.47;102293.83;2280131;78;51625;-74
2023/04/04 03:07:33;;;;;;;;;;;;;;;18.08;58.67;102294.29;2194539;79;51679;-75
2023/04/04 03:10:34;;;;;;;;;;;;;;;18.15;58.65;102283.38;2237418;79;51563;-73
2023/04/04 03:13:36;;;;;;;;;;;;;;;18.28;58.39;102285.78;2217052;79;50707;-74
2023/04/04 03:16:38;;;;;;;;;;;;;;;18.37;58.10;102286.28;2217342;79;50772;-73
2023/04/04 03:19:40;;;;;;;;;;;;;;;18.37;58.07;102285.41;2194432;79;50388;-73
2023/04/04 03:22:41;;;;;;;;;;;;;;;18.34;58.12;102285.23;2236651;79;50844;-74
2023/04/04 03:25:43;;;;;;;;;;;;;;;18.34;58.03;102283.02;2215280;79;51557;-73
2023/04/04 03:28:44;;;;;;;;;;;;;;;18.28;58.17;102281.76;2215302;79;50728;-74
2023/04/04 03:31:46;;;;;;;;;;;;;;;18.18;58.30;102273.72;2215282;79;50926;-73
2023/04/04 03:34:48;;;;;;;;;;;;;;;18.12;58.40;102270.77;2253698;78;51479;-73
2023/04/04 03:37:49;;;;;;;;;;;;;;;18.04;58.51;102266.95;2258125;78;51573;-73
2023/04/04 03:40:53;;;;;;;;;;;;;;;18.02;58.55;102268.08;2279436;78;51461;-73
2023/04/04 03:43:54;;;;;;;;;;;;;;;18.00;58.75;102266.03;2256873;78;52397;-74
2023/04/04 03:46:56;;;;;;;;;;;;;;;18.03;58.63;102265.27;2258419;78;51533;-73
2023/04/04 03:49:57;;;;;;;;;;;;;;;18.12;58.50;102264.91;2257938;78;50295;-75
2023/04/04 03:52:59;;;;;;;;;;;;;;;18.18;58.33;102256.80;2258073;78;51550;-73
2023/04/04 03:56:01;;;;;;;;;;;;;;;18.28;58.18;102261.66;2257785;78;52598;-74
2023/04/04 03:59:03;;;;;;;;;;;;;;;18.33;58.04;102258.56;2279398;78;50294;-74
2023/04/04 04:02:04;;;;;;;;;;;;;;;18.37;57.90;102252.78;2279212;78;51563;-73
2023/04/04 04:05:06;;;;;;;;;;;;;;;18.37;57.86;102242.06;2246010;78;51472;-73
2023/04/04 04:08:08;;;;;;;;;;;;;;;18.36;57.82;102240.36;2233990;78;52487;-73
2023/04/04 04:11:09;;;;;;;;;;;;;;;18.36;57.80;102239.52;2258324;78;51428;-73
2023/04/04 04:14:11;;;;;;;;;;;;;;;18.31;57.85;102239.94;2279129;78;50365;-74
2023/04/04 04:17:14;;;;;;;;;;;;;;;18.25;57.94;102243.20;2279196;78;51695;-73
2023/04/04 04:20:16;;;;;;;;;;;;;;;18.19;58.02;102252.66;2234345;78;51295;-73
2023/04/04 04:23:17;;;;;;;;;;;;;;;18.10;58.22;102244.11;2258422;78;50696;-74
2023/04/04 04:26:20;;;;;;;;;;;;;;;18.08;58.35;102249.25;2258693;78;52205;-74
2023/04/04 04:29:21;;;;;;;;;;;;;;;18.07;58.46;102251.09;2258220;78;50336;-74
2023/04/04 04:32:25;;;;;;;;;;;;;;;18.21;58.18;102249.34;2233559;78;51820;-74
2023/04/04 04:35:26;;;;;;;;;;;;;;;18.31;58.11;102255.17;2219413;78;51236;-74
2023/04/04 04:38:28;;;;;;;;;;;;;;;18.36;57.93;102256.44;2257737;78;50304;-74
2023/04/04 04:41:30;;;;;;;;;;;;;;;18.39;57.84;102245.92;2278986;77;51618;-73
2023/04/04 04:44:32;;;;;;;;;;;;;;;18.38;57.83;102254.97;2257610;78;50647;-74
2023/04/04 04:47:33;;;;;;;;;;;;;;;18.35;57.81;102253.41;2233459;78;52516;-74
2023/04/04 04:50:35;;;;;;;;;;;;;;;18.32;57.84;102253.70;2258535;78;50664;-72
2023/04/04 04:53:36;;;;;;;;;;;;;;;18.26;57.94;102255.59;2280281;78;51660;-73
2023/04/04 04:56:38;;;;;;;;;;;;;;;18.21;58.02;102252.49;2257984;78;51539;-72
2023/04/04 04:59:40;;;;;;;;;;;;;;;18.14;57.95;102252.73;2234081;78;51722;-73
2023/04/04 05:02:41;;;;;;;;;;;;;;;18.10;58.10;102258.84;2259591;78;50575;-74
2023/04/04 05:05:43;;;;;;;;;;;;;;;18.08;58.09;102257.29;2265191;78;50201;-72
2023/04/04 05:08:44;;;;;;;;;;;;;;;18.20;57.95;102256.17;2259612;78;50619;-72
2023/04/04 05:11:46;;;;;;;;;;;;;;;18.31;57.68;102258.69;2260205;78;50958;-72
2023/04/04 05:14:48;;;;;;;;;;;;;;;18.41;57.37;102266.23;2279399;78;50722;-72
2023/04/04 05:17:49;;;;;;;;;;;;;;;18.41;57.26;102264.89;2279878;78;50295;-72
2023/04/04 05:20:52;;;;;;;;;;;;;;;18.41;57.14;102272.94;2258939;78;50295;-72
2023/04/04 05:23:53;;;;;;;;;;;;;;;18.42;57.13;102279.13;2258422;78;52715;-72
2023/04/04 05:26:55;;;;;;;;;;;;;;;18.41;57.09;102282.31;2258626;78;51591;-73
2023/04/04 05:29:57;;;;;;;;;;;;;;;18.41;57.03;102282.31;2279563;78;50646;-71
2023/04/04 05:32:58;;;;;;;;;;;;;;;18.42;56.96;102286.70;2257983;78;51384;-71
2023/04/04 05:36:00;;;;;;;;;;;;;;;18.36;57.02;102290.44;2214239;79;52485;-72
2023/04/04 05:39:03;;;;;;;;;;;;;;;18.29;57.16;102286.16;2221533;79;51483;-70
2023/04/04 05:42:05;;;;;;;;;;;;;;;18.27;57.23;102288.95;2241911;79;51587;-70
2023/04/04 05:45:08;;;;;;;;;;;;;;;18.32;57.29;102284.52;2221296;79;50106;-71
2023/04/04 05:48:09;;;;;;;;;;;;;;;18.51;56.94;102284.99;2221663;79;51246;-71
2023/04/04 05:51:11;;;;;;;;;;;;;;;18.66;56.62;102283.56;2225102;79;50793;-70
2023/04/04 05:54:12;;;;;;;;;;;;;;;18.76;56.48;102277.38;2245621;79;50730;-71
2023/04/04 05:57:14;;;;;;;;;;;;;;;18.83;56.36;102287.86;2245450;79;50709;-70
2023/04/04 06:00:16;;;;;;;;;;;;;;;18.88;56.24;102281.09;2223053;79;51579;-72
2023/04/04 06:03:18;;;;;;;;;;;;;;;18.91;56.16;102278.11;2256889;78;50412;-72
2023/04/04 06:06:19;;;;;;;;;;;;;;;18.95;56.07;102282.68;2267209;78;50245;-72
2023/04/04 06:09:21;;;;;;;;;;;;;;;18.97;56.06;102287.91;2280614;78;50512;-72
2023/04/04 06:12:22;;;;;;;;;;;;;;;18.98;56.03;102285.56;2235580;78;51800;-72
2023/04/04 06:15:24;;;;;;;;;;;;;;;18.98;55.88;102281.04;2279694;78;51440;-70
2023/04/04 06:18:25;;;;;;;;;;;;;;;18.99;55.77;102289.96;2258721;78;50628;-72
2023/04/04 06:21:27;;;;;;;;;;;;;;;18.99;55.82;102287.28;2258366;78;51452;-73
2023/04/04 06:24:29;;;;;;;;;;;;;;;18.98;55.79;102293.11;2234287;78;51088;-71
2023/04/04 06:27:31;;;;;;;;;;;;;;;18.97;55.76;102291.44;2258092;78;50770;-71
2023/04/04 06:30:34;;;;;;;;;;;;;;;18.99;55.68;102289.96;2258174;78;50851;-71
2023/04/04 06:33:35;;;;;;;;;;;;;;;19.00;55.62;102284.93;2281545;78;50401;-71
2023/04/04 06:36:37;;;;;;;;;;;;;;;19.00;55.63;102284.93;2245267;78;51830;-71
2023/04/04 06:39:39;;;;;;;;;;;;;;;18.98;55.60;102290.43;2258076;78;50256;-71
2023/04/04 06:42:42;;;;;;;;;;;;;;;18.99;55.60;102292.14;2279040;77;51547;-72
2023/04/04 06:45:44;;;;;;;;;;;;;;;19.00;55.55;102297.00;2278280;78;51633;-71
2023/04/04 06:48:45;;;;;;;;;;;;;;;19.00;55.51;102297.00;2257990;78;51196;-71
2023/04/04 06:51:49;;;;;;;;;;;;;;;19.00;55.50;102299.19;2279244;78;50397;-71
2023/04/04 06:54:50;;;;;;;;;;;;;;;19.00;55.46;102303.70;2279161;77;22344;-71
2023/04/04 06:57:52;;;;;;;;;;;;;;;18.99;55.41;102292.64;2279033;78;50711;-72
2023/04/04 07:00:55;;;;;;;;;;;;;;;18.99;55.42;102291.30;2258136;78;51191;-71
2023/04/04 07:03:56;;;;;;;;;;;;;;;18.99;55.37;102294.83;2272395;78;51629;-71
2023/04/04 07:06:58;;;;;;;;;;;;;;;18.99;55.35;102299.34;2273200;78;51557;-70
2023/04/04 07:10:00;;;;;;;;;;;;;;;18.98;55.29;102293.11;2257874;78;51454;-71
2023/04/04 07:13:02;;;;;;;;;;;;;;;18.98;55.28;102288.25;2233356;78;51749;-71
2023/04/04 07:16:03;;;;;;;;;;;;;;;18.96;55.24;102282.17;2258386;78;50668;-71
2023/04/04 07:19:05;;;;;;;;;;;;;;;18.94;55.24;102275.64;2258251;78;50331;-71
2023/04/04 07:22:06;;;;;;;;;;;;;;;18.93;55.23;102275.27;2279086;77;50364;-71
2023/04/04 07:25:08;;;;;;;;;;;;;;;18.91;55.19;102275.43;2233383;78;51356;-71
2023/04/04 07:28:10;;;;;;;;;;;;;;;18.91;55.12;102279.95;2258110;78;51374;-73
2023/04/04 07:31:13;;;;;;;;;;;;;;;18.89;55.11;102276.06;2279440;77;50701;-72
2023/04/04 07:34:15;;;;;;;;;;;;;;;18.86;55.14;102276.36;2258113;78;51581;-71
2023/04/04 07:37:17;;;;;;;;;;;;;;;18.85;55.16;102271.13;2221606;78;52358;-72
2023/04/04 07:40:19;;;;;;;;;;;;;;;18.84;55.19;102269.45;2279023;78;50876;-73
2023/04/04 07:43:20;;;;;;;;;;;;;;;18.82;55.20;102269.59;2257803;78;53651;-72
2023/04/04 07:46:22;;;;;;;;;;;;;;;18.81;55.20;102258.52;2278639;78;51357;-71
2023/04/04 07:49:24;;;;;;;;;;;;;;;18.80;55.21;102264.02;2283051;77;50063;-71
2023/04/04 07:52:25;;;;;;;;;;;;;;;18.78;55.21;102260.63;2257976;78;50000;-71
2023/04/04 07:55:27;;;;;;;;;;;;;;;18.77;55.17;102258.45;2278832;77;50671;-71
2023/04/04 07:58:29;;;;;;;;;;;;;;;18.74;55.22;102261.89;2278987;78;50375;-72
2023/04/04 08:01:30;;;;;;;;;;;;;;;18.72;55.21;102252.64;2233329;78;50947;-72
2023/04/04 08:04:32;;;;;;;;;;;;;;;18.70;55.22;102255.95;2244990;78;50191;-71
2023/04/04 08:07:34;;;;;;;;;;;;;;;18.67;55.21;102260.27;2257819;78;50669;-73
2023/04/04 08:10:35;;;;;;;;;;;;;;;18.66;55.24;102259.94;2278120;78;51492;-72
2023/04/04 08:13:37;;;;;;;;;;;;;;;18.62;55.27;102258.52;2233664;78;51664;-73
2023/04/04 08:16:39;;;;;;;;;;;;;;;18.61;55.31;102264.88;2257581;78;50305;-72
2023/04/04 08:19:41;;;;;;;;;;;;;;;18.57;55.35;102252.74;2257972;78;51602;-71
2023/04/04 08:22:43;;;;;;;;;;;;;;;18.56;55.40;102244.36;2278915;78;51534;-71
2023/04/04 08:25:45;;;;;;;;;;;;;;;18.53;55.34;102248.17;2278775;78;51546;-72
2023/04/04 08:28:47;;;;;;;;;;;;;;;18.50;55.39;102242.61;2257812;78;50684;-71
2023/04/04 08:31:49;;;;;;;;;;;;;;;18.50;55.36;102245.28;2257940;78;50684;-72
2023/04/04 08:34:50;;;;;;;;;;;;;;;18.47;55.40;102240.22;2266160;78;50339;-71
2023/04/04 08:37:52;;;;;;;;;;;;;;;18.45;55.41;102244.87;2279003;78;51545;-71
2023/04/04 08:40:54;;;;;;;;;;;;;;;18.46;55.33;102245.70;2258599;78;50348;-72
2023/04/04 08:43:56;;;;;;;;;;;;;;;18.41;55.33;102243.45;2278848;78;50358;-71
2023/04/04 08:46:59;;;;;;;;;;;;;;;18.39;55.40;102244.58;2279112;77;51532;-71
2023/04/04 08:50:04;;;;;;;;;;;;;;;18.32;55.52;102241.65;2257163;78;53087;-71
2023/04/04 08:53:06;;;;;;;;;;;;;;;18.29;55.58;102243.28;2257991;78;50800;-71
2023/04/04 08:56:08;;;;;;;;;;;;;;;18.26;55.69;102238.17;2258059;78;51522;-71
2023/04/04 08:59:14;;;;;;;;;;;;;;;18.22;55.84;102240.80;2279172;78;51285;-71
2023/04/04 09:02:33;;;;;;;;;;;;;;;18.21;55.85;102235.08;2279151;77;23075;-70
2023/04/04 09:05:34;;;;;;;;;;;;;;;18.19;55.83;102231.22;2266375;77;50167;-71
2023/04/04 09:08:36;;;;;;;;;;;;;;;18.23;55.80;102233.95;2213269;79;51167;-72
2023/04/04 09:11:37;;;;;;;;;;;;;;;18.27;55.66;102229.17;2233923;79;50658;-70
2023/04/04 09:14:39;;;;;;;;;;;;;;;18.28;55.61;102226.83;2213093;79;52401;-71
2023/04/04 09:17:41;;;;;;;;;;;;;;;18.28;55.60;102226.83;2233830;79;50263;-73
2023/04/04 09:20:43;;;;;;;;;;;;;;;18.27;55.62;102227.83;2233687;79;50404;-72
2023/04/04 09:23:45;;;;;;;;;;;;;;;18.18;55.83;102228.67;2233630;79;51522;-72
2023/04/04 09:26:48;;;;;;;;;;;;;;;18.15;55.83;102223.09;2213155;79;51934;-74
2023/04/04 09:29:51;;;;;;;;;;;;;;;18.15;55.86;102212.88;2233665;78;51539;-71
2023/04/04 09:32:53;;;;;;;;;;;;;;;18.13;55.89;102220.21;2214267;78;50278;-70
2023/04/04 09:35:55;;;;;;;;;;;;;;;18.15;55.92;102219.58;2264998;78;51506;-71
2023/04/04 09:38:56;;;;;;;;;;;;;;;18.14;55.96;102211.20;2189597;79;53150;-72
2023/04/04 09:41:58;;;;;;;;;;;;;;;18.09;55.86;102224.18;2233842;79;51565;-70
2023/04/04 09:45:01;;;;;;;;;;;;;;;18.13;55.79;102226.41;2213193;79;50684;-71
2023/04/04 09:48:02;;;;;;;;;;;;;;;18.17;55.64;102219.80;2213505;79;50285;-71
2023/04/04 09:51:04;;;;;;;;;;;;;;;18.18;55.56;102208.58;2189752;79;51473;-70
2023/04/04 09:54:06;;;;;;;;;;;;;;;18.17;55.58;102218.45;2233561;79;51580;-71
2023/04/04 09:57:08;;;;;;;;;;;;;;;18.17;55.56;102211.75;2214057;79;50615;-72
2023/04/04 10:00:10;;;;;;;;;;;;;;;18.12;55.69;102207.81;2234264;79;51582;-71
2023/04/04 10:03:13;;;;;;;;;;;;;;;18.08;55.88;102202.38;2235320;78;51632;-71
2023/04/04 10:06:14;;;;;;;;;;;;;;;18.08;55.94;102207.73;2264128;78;50820;-71
2023/04/04 10:09:16;;;;;;;;;;;;;;;18.04;56.12;102204.00;2233878;79;51487;-71
2023/04/04 10:12:19;;;;;;;;;;;;;;;18.05;56.15;102199.48;2233885;79;50679;-71
2023/04/04 10:15:21;;;;;;;;;;;;;;;18.02;56.02;102206.47;2233562;78;50324;-71
2023/04/04 10:18:27;;;;;;;;;;;;;;;18.03;55.90;102201.45;2233904;79;51503;-71
2023/04/04 10:21:28;;;;;;;;;;;;;;;18.12;55.70;102197.10;2233874;79;51610;-71
2023/04/04 10:24:30;;;;;;;;;;;;;;;18.28;55.32;102202.71;2233751;79;51567;-69
2023/04/04 10:27:32;;;;;;;;;;;;;;;18.30;55.22;102193.20;2213411;79;52633;-70
2023/04/04 10:30:33;;;;;;;;;;;;;;;18.32;55.13;102189.39;2234050;79;50669;-70
2023/04/04 10:33:39;;;;;;;;;;;;;;;18.36;55.00;102180.06;2247604;78;50775;-73
2023/04/04 10:36:53;;;;;;;;;;;;;;;18.35;54.99;102182.41;2271848;77;50513;-72
2023/04/04 10:39:57;;;;;;;;;;;;;;;18.26;55.99;102189.95;2257893;78;51780;-73
2023/04/04 10:42:58;;;;;;;;;;;;;;;18.25;55.38;102186.93;2279116;77;51617;-73
2023/04/04 10:46:01;;;;;;;;;;;;;;;18.17;55.62;102178.77;2279013;78;51538;-72
2023/04/04 10:49:03;;;;;;;;;;;;;;;18.14;55.92;102183.08;2279113;78;50451;-72
2023/04/04 10:52:05;;;;;;;;;;;;;;;18.12;56.06;102174.33;2257903;78;50990;-73
2023/04/04 10:55:08;;;;;;;;;;;;;;;18.12;56.18;102175.17;2278960;78;51665;-73
2023/04/04 10:58:10;;;;;;;;;;;;;;;18.16;56.24;102162.33;2278458;78;51539;-73
2023/04/04 11:01:15;;;;;;;;;;;;;;;18.19;56.30;102162.91;2274818;78;50508;-71
2023/04/04 11:04:16;;;;;;;;;;;;;;;18.16;56.25;102157.84;2251858;78;22815;-73
2023/04/04 11:07:18;;;;;;;;;;;;;;;18.13;56.29;102162.11;2257559;78;50337;-73
2023/04/04 11:10:24;;;;;;;;;;;;;;;18.18;56.08;102147.80;2256523;78;50428;-73
2023/04/04 11:13:28;;;;;;;;;;;;;;;18.19;56.11;102147.33;2268538;78;52687;-74
2023/04/04 11:16:31;;;;;;;;;;;;;;;18.16;56.19;102143.57;2240256;78;52633;-72
2023/04/04 11:19:33;;;;;;;;;;;;;;;18.16;56.16;102139.08;2246345;78;51335;-73
2023/04/04 11:22:38;;;;;;;;;;;;;;;18.17;56.13;102139.92;2270304;78;51524;-73
2023/04/04 11:25:40;;;;;;;;;;;;;;;18.13;56.17;102138.01;2222801;78;50834;-73
2023/04/04 11:28:43;;;;;;;;;;;;;;;18.12;56.13;102140.34;2205650;78;51758;-73
2023/04/04 11:31:45;;;;;;;;;;;;;;;18.15;56.09;102135.20;2249551;78;51594;-74
2023/04/04 11:34:47;;;;;;;;;;;;;;;18.19;55.98;102131.25;2281288;78;50770;-72
2023/04/04 11:37:54;;;;;;;;;;;;;;;18.21;55.93;102123.89;2222554;78;50348;-72
2023/04/04 11:40:55;;;;;;;;;;;;;;;18.21;55.94;102129.25;2216692;79;50687;-76
2023/04/04 11:43:57;;;;;;;;;;;;;;;18.23;55.88;102112.54;2279385;78;51553;-73
2023/04/04 11:47:09;;;;;;;;;;;;;;;18.26;55.80;102112.25;2279593;78;50308;-73
2023/04/04 11:50:12;;;;;;;;;;;;;;;18.27;55.71;102117.97;2279602;78;51409;-73
2023/04/04 11:53:14;;;;;;;;;;;;;;;18.29;55.75;102102.60;2217564;79;51209;-72
2023/04/04 11:56:16;;;;;;;;;;;;;;;18.21;55.85;102103.33;2228537;78;50948;-72
2023/04/04 11:59:18;;;;;;;;;;;;;;;18.17;55.87;102097.90;2266502;78;51575;-72
2023/04/04 12:02:26;;;;;;;;;;;;;;;18.13;56.02;102091.63;2258317;78;50234;-73
2023/04/04 12:05:27;;;;;;;;;;;;;;;18.12;56.09;102090.79;2260604;77;23286;-72
2023/04/04 12:08:29;;;;;;;;;;;;;;;18.24;55.93;102086.95;2280632;78;51538;-72
2023/04/04 12:11:31;;;;;;;;;;;;;;;18.30;55.88;102082.00;2260401;78;51455;-74
2023/04/04 12:14:33;;;;;;;;;;;;;;;18.31;55.80;102087.20;2279909;78;50521;-73
2023/04/04 12:17:36;;;;;;;;;;;;;;;18.32;55.70;102081.37;2258565;78;52406;-73
2023/04/04 12:20:39;;;;;;;;;;;;;;;18.28;55.76;102078.95;2280565;76;51554;-72
2023/04/04 12:23:41;;;;;;;;;;;;;;;18.29;55.70;102078.48;2275888;78;50832;-72
2023/04/04 12:26:43;;;;;;;;;;;;;;;18.28;55.69;102072.26;2269287;78;50679;-73
2023/04/04 12:29:46;;;;;;;;;;;;;;;18.31;55.65;102070.28;2238880;77;51125;-73
2023/04/04 12:32:48;;;;;;;;;;;;;;;18.33;55.55;102066.97;2244296;78;50718;-73
2023/04/04 12:35:53;;;;;;;;;;;;;;;18.33;55.53;102062.45;2276985;78;50740;-72
2023/04/04 12:38:56;;;;;;;;;;;;;;;18.30;55.61;102060.06;2282614;77;51914;-73
2023/04/04 12:42:00;;;;;;;;;;;;;;;18.26;55.72;102050.15;2225643;78;52527;-73
2023/04/04 12:45:03;;;;;;;;;;;;;;;18.24;55.86;102043.25;2221460;79;50385;-73
2023/04/04 12:48:06;;;;;;;;;;;;;;;18.17;55.90;102046.16;2241678;79;50710;-73
2023/04/04 12:51:08;;;;;;;;;;;;;;;18.12;55.90;102039.89;2239609;79;51616;-72
2023/04/04 12:54:12;;;;;;;;;;;;;;;18.10;56.00;102035.67;2219460;79;51336;-71
2023/04/04 12:57:20;;;;;;;;;;;;;;;18.06;56.12;102027.94;2238167;79;51584;-72
2023/04/04 13:00:22;;;;;;;;;;;;;;;18.05;56.20;102034.77;2240210;79;51845;-72
2023/04/04 13:03:24;;;;;;;;;;;;;;;18.04;56.26;102021.03;2219634;79;50235;-74
2023/04/04 13:06:27;;;;;;;;;;;;;;;18.03;56.25;102022.00;2242982;78;50381;-73
2023/04/04 13:09:29;;;;;;;;;;;;;;;17.97;56.19;102019.92;2279404;78;50083;-72
2023/04/04 13:12:48;;;;;;;;;;;;;;;17.96;56.10;102029.80;2279416;78;51529;-73
2023/04/04 13:15:50;;;;;;;;;;;;;;;18.05;55.92;102014.17;2279003;78;50792;-73
2023/04/04 13:18:52;;;;;;;;;;;;;;;18.16;55.65;102010.97;2279150;78;50438;-72
2023/04/04 13:21:53;;;;;;;;;;;;;;;18.25;55.42;101999.37;2258100;78;50269;-72
2023/04/04 13:24:55;;;;;;;;;;;;;;;18.31;55.25;101998.77;2278970;77;50776;-73
2023/04/04 13:27:57;;;;;;;;;;;;;;;18.34;55.14;101991.80;2279238;77;50385;-72
2023/04/04 13:31:00;;;;;;;;;;;;;;;18.33;55.16;101992.78;2257841;78;51151;-71
2023/04/04 13:34:01;;;;;;;;;;;;;;;18.33;55.52;101990.09;2280854;78;50744;-72
2023/04/04 13:37:03;;;;;;;;;;;;;;;18.41;55.31;101998.23;2264052;77;50689;-72
2023/04/04 13:40:05;;;;;;;;;;;;;;;18.44;55.31;101998.43;2279195;78;50319;-73
2023/04/04 13:43:07;;;;;;;;;;;;;;;18.35;55.53;101989.96;2233696;78;49708;-74
2023/04/04 13:46:09;;;;;;;;;;;;;;;18.33;55.80;101983.91;2257793;78;51486;-74
2023/04/04 13:49:10;;;;;;;;;;;;;;;18.30;56.07;101983.70;2279051;78;51552;-74
2023/04/04 13:52:12;;;;;;;;;;;;;;;18.24;56.18;101977.61;2279250;78;50755;-74
2023/04/04 13:55:13;;;;;;;;;;;;;;;18.17;56.31;101970.65;2258111;78;52553;-74
2023/04/04 13:58:18;;;;;;;;;;;;;;;18.10;56.47;101965.53;2284147;78;51530;-75
2023/04/04 14:01:18;;;;;;;;;;;;;;;18.08;56.58;101959.47;2287279;77;22337;-72
2023/04/04 14:04:20;;;;;;;;;;;;;;;18.04;56.67;101956.75;2284785;78;50346;-74
2023/04/04 14:07:21;;;;;;;;;;;;;;;18.03;56.65;101955.92;2245658;78;50696;-75
2023/04/04 14:10:23;;;;;;;;;;;;;;;17.99;56.01;101946.98;2258255;78;51553;-74
2023/04/04 14:13:25;;;;;;;;;;;;;;;18.03;56.69;101950.56;2258639;78;51574;-75
2023/04/04 14:16:26;;;;;;;;;;;;;;;18.05;56.77;101950.39;2258417;78;50667;-75
2023/04/04 14:19:28;;;;;;;;;;;;;;;18.08;57.42;101947.91;2233615;78;52595;-74
2023/04/04 14:22:29;;;;;;;;;;;;;;;18.12;57.14;101940.78;2279276;78;50742;-72
2023/04/04 14:25:31;;;;;;;;;;;;;;;18.19;56.53;101946.41;2278958;78;50489;-73
2023/04/04 14:28:33;;;;;;;;;;;;;;;18.16;56.60;101942.19;2257994;78;50288;-73
2023/04/04 14:31:34;;;;;;;;;;;;;;;18.14;56.87;101939.30;2257927;78;51676;-72
2023/04/04 14:34:36;;;;;;;;;;;;;;;18.12;57.17;101946.64;2245460;78;50090;-71
2023/04/04 14:37:38;;;;;;;;;;;;;;;18.14;57.20;101947.34;2281907;78;50307;-73
2023/04/04 14:40:39;;;;;;;;;;;;;;;18.15;57.22;101945.84;2287152;78;51572;-74
2023/04/04 14:43:41;;;;;;;;;;;;;;;18.10;57.50;101936.56;2256360;78;52451;-73
2023/04/04 14:46:43;;;;;;;;;;;;;;;18.06;57.52;101932.84;2256607;78;50371;-74
2023/04/04 14:49:45;;;;;;;;;;;;;;;18.05;57.31;101945.03;2256861;78;51488;-74
2023/04/04 14:52:49;;;;;;;;;;;;;;;18.06;57.20;101927.49;2287265;78;51658;-74
2023/04/04 14:55:51;;;;;;;;;;;;;;;18.07;57.38;101935.02;2287017;77;23185;-74
2023/04/04 14:58:53;;;;;;;;;;;;;;;18.09;57.60;101923.67;2257303;78;51562;-75
2023/04/04 15:01:55;;;;;;;;;;;;;;;18.11;57.63;101921.70;2287163;78;50731;-74
2023/04/04 15:04:56;;;;;;;;;;;;;;;18.14;57.86;101921.89;2247204;78;51469;-73
2023/04/04 15:07:58;;;;;;;;;;;;;;;18.15;57.93;101919.55;2226751;78;52376;-73
2023/04/04 15:11:03;;;;;;;;;;;;;;;18.16;57.87;101915.87;2257891;78;51551;-75
2023/04/04 15:14:04;;;;;;;;;;;;;;;18.19;58.04;101908.90;2257784;78;51634;-75
2023/04/04 15:17:06;;;;;;;;;;;;;;;18.23;58.52;101920.48;2258207;78;50337;-75
2023/04/04 15:20:08;;;;;;;;;;;;;;;18.27;58.76;101918.36;2258167;78;52319;-75
2023/04/04 15:23:09;;;;;;;;;;;;;;;18.28;59.04;101922.72;2258048;78;50655;-75
2023/04/04 15:26:11;;;;;;;;;;;;;;;18.29;59.59;101915.05;2257687;78;50273;-75
2023/04/04 15:29:14;;;;;;;;;;;;;;;18.34;59.93;101912.75;2257843;78;50665;-74
2023/04/04 15:32:16;;;;;;;;;;;;;;;18.38;59.99;101902.56;2279140;77;51672;-73
2023/04/04 15:35:18;;;;;;;;;;;;;;;18.45;60.16;101899.13;2278638;78;50238;-73